Time;durP1;ratioP1;P1;durP2;ratioP2;P2;SDS_P1;SDS_P2;PMS_P1;PMS_P2;Temp;Humidity;BMP_temperature;BMP_pressure;BME280_temperature;BME280_humidity;BME280_pressure;Samples;Min_cycle;Max_cycle;Signal;HPM_P1;HPM_P2
2020/12/27 00:00:18;;;;;;;96.37;28.37;;;-6.00;99.90;;;;;;4466395;27;658816;-61
2020/12/27 00:03:05;;;;;;;118.83;32.77;;;-6.10;99.90;;;;;;4482359;27;659567;-61
2020/12/27 00:05:52;;;;;;;189.70;43.65;;;-6.20;99.90;;;;;;4465059;27;659613;-62
2020/12/27 00:08:39;;;;;;;179.38;42.47;;;-6.30;99.90;;;;;;4490825;27;659651;-61
2020/12/27 00:11:26;;;;;;;151.63;39.17;;;-6.30;99.90;;;;;;4485234;27;659740;-60
2020/12/27 00:14:13;;;;;;;179.60;39.43;;;-6.40;99.90;;;;;;4460951;27;659818;-60
2020/12/27 00:17:03;;;;;;;159.80;41.00;;;-6.40;99.90;;;;;;4492690;27;660791;-61
2020/12/27 00:19:50;;;;;;;143.47;37.07;;;-6.40;99.90;;;;;;4477663;27;660216;-60
2020/12/27 00:22:37;;;;;;;139.50;38.53;;;-6.50;99.90;;;;;;4468750;27;660008;-62
2020/12/27 00:25:24;;;;;;;141.47;38.23;;;-6.60;99.90;;;;;;4491444;27;659516;-60
2020/12/27 00:28:11;;;;;;;142.23;38.75;;;-6.60;99.90;;;;;;4477529;27;659911;-60
2020/12/27 00:30:59;;;;;;;130.82;35.28;;;-6.60;99.90;;;;;;4467311;27;659694;-60
2020/12/27 00:33:45;;;;;;;127.83;33.27;;;-6.70;99.90;;;;;;4500475;27;659981;-60
2020/12/27 00:36:32;;;;;;;109.37;28.10;;;-6.70;99.90;;;;;;4468733;27;660205;-62
2020/12/27 00:39:21;;;;;;;101.67;28.27;;;-6.70;99.90;;;;;;4495524;27;660165;-61
2020/12/27 00:42:08;;;;;;;126.70;33.37;;;-6.80;99.90;;;;;;4468246;27;659649;-60
2020/12/27 00:44:56;;;;;;;127.83;31.47;;;-6.80;99.90;;;;;;4491534;27;661054;-60
2020/12/27 00:47:45;;;;;;;112.60;31.20;;;-6.80;99.90;;;;;;4456572;27;659741;-60
2020/12/27 00:50:32;;;;;;;128.67;33.83;;;-6.80;99.90;;;;;;4470892;27;659588;-62
2020/12/27 00:53:19;;;;;;;119.38;32.35;;;-6.70;99.90;;;;;;4485291;27;660885;-60
2020/12/27 00:56:08;;;;;;;112.03;31.43;;;-6.80;99.90;;;;;;4493126;27;659758;-61
2020/12/27 00:58:55;;;;;;;113.33;31.87;;;-6.80;99.90;;;;;;4447394;27;659915;-61
2020/12/27 01:01:42;;;;;;;117.13;33.87;;;-6.70;99.90;;;;;;4481041;27;659585;-61
2020/12/27 01:04:31;;;;;;;117.10;32.33;;;-6.60;99.90;;;;;;4492077;27;660668;-60
2020/12/27 01:07:19;;;;;;;80.73;25.23;;;-6.70;99.90;;;;;;4464940;27;660741;-60
2020/12/27 01:10:07;;;;;;;100.80;28.63;;;-6.70;99.90;;;;;;4462351;27;659794;-62
2020/12/27 01:12:54;;;;;;;77.35;24.63;;;-6.70;99.90;;;;;;4494618;27;659750;-60
2020/12/27 01:15:41;;;;;;;88.05;25.30;;;-6.70;99.90;;;;;;4491361;27;658805;-60
2020/12/27 01:18:28;;;;;;;70.55;23.85;;;-6.60;99.90;;;;;;4474906;27;658602;-61
2020/12/27 01:21:23;;;;;;;75.23;24.07;;;-6.60;99.90;;;;;;4481544;27;658905;-61
2020/12/27 01:24:10;;;;;;;61.27;18.47;;;-6.60;99.90;;;;;;4460799;27;658804;-60
2020/12/27 01:26:57;;;;;;;40.33;11.37;;;-6.50;99.90;;;;;;4451478;27;658453;-60
2020/12/27 01:29:44;;;;;;;55.87;17.77;;;-6.30;99.90;;;;;;4486211;27;659620;-61
2020/12/27 01:32:32;;;;;;;51.83;18.50;;;-6.30;99.90;;;;;;4474877;27;658448;-62
2020/12/27 01:35:19;;;;;;;50.47;17.10;;;-6.30;99.90;;;;;;4502191;27;659946;-61
2020/12/27 01:38:06;;;;;;;48.27;15.37;;;-6.30;99.90;;;;;;4478656;27;658721;-60
2020/12/27 01:41:01;;;;;;;48.30;15.97;;;-6.40;99.90;;;;;;4464483;27;659898;-60
2020/12/27 01:44:04;;;;;;;48.47;15.47;;;-6.30;99.90;;;;;;4432027;27;659891;-62
2020/12/27 01:46:52;;;;;;;42.47;15.57;;;-6.30;99.90;;;;;;4463064;27;659481;-62
2020/12/27 01:49:39;;;;;;;41.00;14.60;;;-6.40;99.90;;;;;;4489586;27;659465;-61
2020/12/27 01:52:26;;;;;;;51.85;15.48;;;-6.30;99.90;;;;;;4496283;27;659244;-60
2020/12/27 01:55:15;;;;;;;46.93;15.10;;;-6.30;99.90;;;;;;4473739;27;658466;-61
2020/12/27 01:58:15;;;;;;;35.22;12.75;;;-6.30;99.90;;;;;;4472618;27;658678;-62
2020/12/27 02:01:02;;;;;;;50.97;14.90;;;-6.20;99.90;;;;;;4445926;27;659378;-61
2020/12/27 02:03:49;;;;;;;46.93;15.97;;;-6.30;99.90;;;;;;4465696;28;659219;-61
2020/12/27 02:06:39;;;;;;;40.93;14.67;;;-6.30;99.90;;;;;;4480723;27;659305;-62
2020/12/27 02:09:27;;;;;;;49.77;15.77;;;-6.40;99.90;;;;;;4479605;27;658686;-62
2020/12/27 02:12:14;;;;;;;39.77;14.20;;;-6.40;99.90;;;;;;4496758;27;658672;-61
2020/12/27 02:15:02;;;;;;;37.55;13.10;;;-6.50;99.90;;;;;;4484834;27;658462;-61
2020/12/27 02:17:49;;;;;;;36.03;11.37;;;-6.50;99.90;;;;;;4498476;27;658548;-60
2020/12/27 02:20:37;;;;;;;37.00;12.30;;;-6.50;99.90;;;;;;4500051;27;658735;-60
2020/12/27 02:23:24;;;;;;;36.70;12.80;;;-6.60;99.90;;;;;;4462244;27;659650;-60
2020/12/27 02:26:11;;;;;;;40.03;14.73;;;-6.60;99.90;;;;;;4491266;27;659276;-61
2020/12/27 02:28:59;;;;;;;43.23;14.23;;;-6.60;99.90;;;;;;4465852;27;660869;-60
2020/12/27 02:31:45;;;;;;;43.00;13.97;;;-6.60;99.90;;;;;;4497523;27;658703;-60
2020/12/27 02:34:32;;;;;;;47.87;14.90;;;-6.60;99.90;;;;;;4466425;27;658469;-60
2020/12/27 02:37:19;;;;;;;52.00;15.37;;;-6.70;99.90;;;;;;4493707;27;660460;-61
2020/12/27 02:40:07;;;;;;;46.27;13.70;;;-6.60;99.90;;;;;;4479567;27;658680;-62
2020/12/27 02:42:54;;;;;;;43.20;14.23;;;-6.60;99.90;;;;;;4492714;27;658603;-61
2020/12/27 02:45:42;;;;;;;39.33;13.37;;;-6.70;99.90;;;;;;4485835;27;660172;-62
2020/12/27 02:48:29;;;;;;;42.63;13.85;;;-6.70;99.90;;;;;;4485346;27;658627;-60
2020/12/27 02:51:16;;;;;;;38.10;13.07;;;-6.80;99.90;;;;;;4491129;27;659066;-60
2020/12/27 02:54:02;;;;;;;51.43;13.70;;;-6.90;99.90;;;;;;4481322;27;658723;-61
2020/12/27 02:56:49;;;;;;;48.23;14.40;;;-6.80;99.90;;;;;;4491592;27;660316;-60
2020/12/27 02:59:38;;;;;;;42.07;13.57;;;-6.80;99.90;;;;;;4470271;27;658509;-62
2020/12/27 03:02:25;;;;;;;131.55;19.35;;;-6.80;99.90;;;;;;4484541;27;660282;-60
2020/12/27 03:05:12;;;;;;;36.30;13.57;;;-6.70;99.90;;;;;;4464289;27;659630;-62
2020/12/27 03:07:59;;;;;;;37.47;13.10;;;-6.70;99.90;;;;;;4496430;27;660228;-60
2020/12/27 03:10:45;;;;;;;39.70;13.83;;;-6.70;99.90;;;;;;4489635;27;658722;-61
2020/12/27 03:13:33;;;;;;;36.27;13.13;;;-6.70;99.90;;;;;;4474734;27;658385;-62
2020/12/27 03:16:21;;;;;;;42.00;13.50;;;-6.70;99.90;;;;;;4474177;27;659723;-60
2020/12/27 03:19:08;;;;;;;39.53;12.97;;;-6.80;99.90;;;;;;4476184;27;659743;-61
2020/12/27 03:21:55;;;;;;;35.53;12.77;;;-6.80;99.90;;;;;;4490735;27;659142;-60
2020/12/27 03:24:42;;;;;;;33.20;11.77;;;-6.70;99.90;;;;;;4475490;27;658862;-62
2020/12/27 03:27:29;;;;;;;39.27;13.33;;;-6.60;99.90;;;;;;4496405;27;659488;-60
2020/12/27 03:30:16;;;;;;;42.37;14.77;;;-6.70;99.90;;;;;;4494810;27;658490;-60
2020/12/27 03:33:04;;;;;;;54.78;17.58;;;-6.60;99.90;;;;;;4471481;27;658502;-60
2020/12/27 03:35:53;;;;;;;39.53;11.83;;;-6.50;99.90;;;;;;4498666;27;658731;-60
2020/12/27 03:38:40;;;;;;;44.57;13.97;;;-6.30;99.90;;;;;;4457043;27;659564;-61
2020/12/27 03:41:27;;;;;;;42.17;12.83;;;-6.50;99.90;;;;;;4454628;27;658442;-60
2020/12/27 03:44:14;;;;;;;49.50;15.60;;;-6.40;99.90;;;;;;4472819;27;659411;-60
2020/12/27 03:47:02;;;;;;;41.30;13.97;;;-6.50;99.90;;;;;;4487203;27;658688;-62
2020/12/27 03:49:50;;;;;;;38.17;12.23;;;-6.20;99.90;;;;;;4490797;27;659692;-61
2020/12/27 03:52:37;;;;;;;33.17;11.33;;;-6.30;99.90;;;;;;4468844;27;658493;-62
2020/12/27 03:55:24;;;;;;;29.25;7.80;;;-6.30;99.90;;;;;;4498684;27;659870;-60
2020/12/27 03:58:11;;;;;;;36.00;11.32;;;-6.10;99.90;;;;;;4496170;27;657871;-60
2020/12/27 04:00:57;;;;;;;32.80;10.63;;;-6.20;99.90;;;;;;4476253;27;658560;-60
2020/12/27 04:03:44;;;;;;;29.60;10.60;;;-6.20;99.90;;;;;;4475640;27;659471;-60
2020/12/27 04:06:33;;;;;;;43.25;13.05;;;-6.20;99.90;;;;;;4477895;27;658597;-61
2020/12/27 04:09:19;;;;;;;32.43;11.13;;;-6.30;99.90;;;;;;4483919;27;660128;-60
2020/12/27 04:12:07;;;;;;;38.72;13.25;;;-6.20;99.90;;;;;;4480678;27;658592;-62
2020/12/27 04:14:54;;;;;;;39.23;12.00;;;-6.20;99.90;;;;;;4493141;27;658759;-60
2020/12/27 04:17:41;;;;;;;34.85;11.65;;;-6.30;99.90;;;;;;4502021;27;659129;-60
2020/12/27 04:20:28;;;;;;;32.70;11.80;;;-6.20;99.90;;;;;;4466806;27;658456;-60
2020/12/27 04:23:15;;;;;;;31.83;11.37;;;-6.20;99.90;;;;;;4501351;27;659762;-61
2020/12/27 04:26:02;;;;;;;35.80;13.60;;;-6.30;99.90;;;;;;4472878;27;659198;-60
2020/12/27 04:28:49;;;;;;;34.33;12.50;;;-6.40;99.90;;;;;;4497043;27;659565;-60
2020/12/27 04:31:37;;;;;;;37.77;12.77;;;-6.50;99.90;;;;;;4491799;27;658735;-62
2020/12/27 04:34:23;;;;;;;27.90;10.87;;;-6.40;99.90;;;;;;4492933;27;658517;-61
2020/12/27 04:37:10;;;;;;;30.27;11.37;;;-6.30;99.90;;;;;;4477976;27;659208;-60
2020/12/27 04:39:58;;;;;;;37.47;13.77;;;-6.30;99.90;;;;;;4471157;27;658566;-61
2020/12/27 04:42:49;;;;;;;50.53;14.37;;;-6.40;99.90;;;;;;4494552;27;658828;-60
2020/12/27 04:45:36;;;;;;;82.27;20.73;;;-6.30;99.90;;;;;;4464632;27;658587;-60
2020/12/27 04:48:23;;;;;;;96.57;22.47;;;-6.30;99.90;;;;;;4471833;27;659582;-61
2020/12/27 04:51:11;;;;;;;125.60;24.80;;;-6.30;99.90;;;;;;4484315;27;659364;-60
2020/12/27 04:53:58;;;;;;;117.23;23.03;;;-6.30;99.90;;;;;;4469700;27;660626;-60
2020/12/27 04:56:46;;;;;;;87.70;21.83;;;-6.30;99.90;;;;;;4477326;27;660065;-61
2020/12/27 04:59:33;;;;;;;70.13;18.13;;;-6.30;99.90;;;;;;4475131;27;658859;-60
2020/12/27 05:02:20;;;;;;;57.20;17.17;;;-6.30;99.90;;;;;;4471222;27;658733;-60
2020/12/27 05:05:13;;;;;;;48.97;15.33;;;-6.40;99.90;;;;;;4456062;27;658590;-61
2020/12/27 05:08:00;;;;;;;50.50;15.40;;;-6.40;99.90;;;;;;4464359;27;659568;-60
2020/12/27 05:10:47;;;;;;;51.80;15.87;;;-6.40;99.90;;;;;;4475156;27;660229;-61
2020/12/27 05:13:35;;;;;;;53.63;17.53;;;-6.40;99.90;;;;;;4476942;27;659875;-60
2020/12/27 05:16:22;;;;;;;54.10;16.87;;;-6.40;99.90;;;;;;4463476;27;658809;-61
2020/12/27 05:19:09;;;;;;;48.97;17.30;;;-6.30;99.90;;;;;;4500371;27;659655;-60
2020/12/27 05:21:59;;;;;;;43.93;16.83;;;-6.30;99.90;;;;;;4486683;27;659414;-62
2020/12/27 05:24:49;;;;;;;46.33;17.70;;;-6.40;99.90;;;;;;4477287;27;658389;-61
2020/12/27 05:27:40;;;;;;;47.07;16.53;;;-6.50;99.90;;;;;;4477527;27;659716;-62
2020/12/27 05:30:28;;;;;;;41.57;15.87;;;-6.50;99.90;;;;;;4482018;27;659542;-61
2020/12/27 05:33:15;;;;;;;49.63;17.10;;;-6.40;99.90;;;;;;4476037;27;659587;-61
2020/12/27 05:36:02;;;;;;;54.67;17.97;;;-6.50;99.90;;;;;;4477730;27;658944;-62
2020/12/27 05:38:49;;;;;;;62.93;20.70;;;-6.50;99.90;;;;;;4478474;27;660186;-61
2020/12/27 05:41:36;;;;;;;58.60;19.57;;;-6.60;99.90;;;;;;4493128;27;658809;-60
2020/12/27 05:44:23;;;;;;;47.53;17.07;;;-6.60;99.90;;;;;;4463213;27;661763;-61
2020/12/27 05:47:11;;;;;;;40.60;15.57;;;-6.70;99.90;;;;;;4499768;27;660212;-61
2020/12/27 05:49:58;;;;;;;46.93;16.83;;;-6.80;99.90;;;;;;4456210;27;658469;-60
2020/12/27 05:52:45;;;;;;;45.60;16.00;;;-6.80;99.90;;;;;;4492940;27;659382;-60
2020/12/27 05:55:32;;;;;;;53.40;16.20;;;-6.80;99.90;;;;;;4455736;27;659522;-62
2020/12/27 05:58:20;;;;;;;44.33;16.60;;;-6.80;99.90;;;;;;4494328;27;659587;-60
2020/12/27 06:01:07;;;;;;;50.53;16.97;;;-6.90;99.90;;;;;;4463821;27;659338;-60
2020/12/27 06:03:59;;;;;;;42.07;15.53;;;-6.90;99.90;;;;;;4487304;27;659971;-60
2020/12/27 06:07:05;;;;;;;42.53;16.87;;;-6.90;99.90;;;;;;4464030;27;658944;-60
2020/12/27 06:09:54;;;;;;;50.83;17.00;;;-6.90;99.90;;;;;;4444838;27;659099;-61
2020/12/27 06:13:21;;;;;;;40.63;15.03;;;-6.90;99.90;;;;;;4488045;27;658881;-61
2020/12/27 06:16:09;;;;;;;41.80;14.83;;;-6.80;99.90;;;;;;4443839;27;659518;-60
2020/12/27 06:19:03;;;;;;;46.17;15.60;;;-6.80;99.90;;;;;;4502664;27;658224;-60
2020/12/27 06:22:05;;;;;;;43.90;15.90;;;-7.00;99.90;;;;;;4465345;27;660058;-60
2020/12/27 06:24:52;;;;;;;52.93;17.33;;;-7.00;99.90;;;;;;4453748;27;658290;-62
2020/12/27 06:27:39;;;;;;;44.63;13.77;;;-6.90;99.90;;;;;;4491849;27;659839;-60
2020/12/27 06:30:29;;;;;;;40.80;15.53;;;-6.90;99.90;;;;;;4500845;27;658612;-61
2020/12/27 06:33:20;;;;;;;40.47;14.15;;;-6.90;99.90;;;;;;4458634;27;658878;-62
2020/12/27 06:36:08;;;;;;;40.63;14.50;;;-6.80;99.90;;;;;;4473691;27;658428;-62
2020/12/27 06:38:55;;;;;;;39.50;14.97;;;-6.70;99.90;;;;;;4497862;27;659757;-61
2020/12/27 06:41:42;;;;;;;44.03;15.40;;;-6.60;99.90;;;;;;4467378;27;658352;-62
2020/12/27 06:44:39;;;;;;;46.07;15.87;;;-6.60;99.90;;;;;;4493742;27;658779;-61
2020/12/27 06:47:48;;;;;;;52.87;17.77;;;-6.60;99.90;;;;;;4469573;27;658543;-60
2020/12/27 06:50:43;;;;;;;50.80;17.87;;;-6.50;99.90;;;;;;4466500;27;659000;-61
2020/12/27 06:53:41;;;;;;;48.97;17.80;;;-6.50;99.90;;;;;;4465283;27;658788;-60
2020/12/27 06:56:36;;;;;;;61.50;20.20;;;-6.50;99.90;;;;;;4478275;27;659033;-61
2020/12/27 06:59:24;;;;;;;50.20;19.00;;;-6.50;99.90;;;;;;4443997;27;658914;-61
2020/12/27 07:02:11;;;;;;;62.25;19.15;;;-6.50;99.90;;;;;;4487834;27;658756;-60
2020/12/27 07:04:58;;;;;;;50.27;17.97;;;-6.50;99.90;;;;;;4471981;27;659876;-60
2020/12/27 07:07:45;;;;;;;53.30;17.17;;;-6.40;99.90;;;;;;4490600;27;658358;-60
2020/12/27 07:10:34;;;;;;;43.47;15.83;;;-6.40;99.90;;;;;;4467258;27;658574;-61
2020/12/27 07:13:21;;;;;;;54.47;18.13;;;-6.40;99.90;;;;;;4479653;27;660401;-61
2020/12/27 07:16:11;;;;;;;61.15;18.88;;;-6.40;99.90;;;;;;4476778;27;659281;-60
2020/12/27 07:18:59;;;;;;;46.37;17.37;;;-6.30;99.90;;;;;;4473248;27;659338;-60
2020/12/27 07:21:47;;;;;;;63.77;21.17;;;-6.20;99.90;;;;;;4488413;27;659671;-63
2020/12/27 07:24:35;;;;;;;58.43;21.20;;;-6.10;99.90;;;;;;4498346;27;659359;-61
2020/12/27 07:27:24;;;;;;;55.10;21.43;;;-6.00;99.90;;;;;;4475100;27;658748;-62
2020/12/27 07:30:12;;;;;;;53.60;19.47;;;-5.90;99.90;;;;;;4492843;27;659089;-61
2020/12/27 07:32:59;;;;;;;58.37;21.13;;;-5.90;99.90;;;;;;4499888;27;659325;-60
2020/12/27 07:35:45;;;;;;;55.83;20.73;;;-5.80;99.90;;;;;;4496298;27;658388;-61
2020/12/27 07:38:59;;;;;;;56.00;20.90;;;-5.70;99.90;;;;;;4473860;27;658701;-61
2020/12/27 07:41:48;;;;;;;58.70;21.60;;;-5.60;99.90;;;;;;4479917;27;658450;-61
2020/12/27 07:44:36;;;;;;;56.92;20.23;;;-5.40;99.90;;;;;;4467348;27;659476;-61
2020/12/27 07:47:23;;;;;;;55.80;18.95;;;-5.40;99.90;;;;;;4473873;27;658465;-61
2020/12/27 07:50:10;;;;;;;45.30;16.80;;;-5.20;99.90;;;;;;4487528;27;659342;-61
2020/12/27 07:52:58;;;;;;;42.83;14.93;;;-5.10;99.90;;;;;;4470190;27;658893;-61
2020/12/27 07:55:45;;;;;;;37.77;14.23;;;-4.80;99.90;;;;;;4492569;27;659241;-60
2020/12/27 07:58:32;;;;;;;38.05;13.90;;;-4.70;99.90;;;;;;4466428;27;658522;-64
2020/12/27 08:01:23;;;;;;;43.10;15.05;;;-4.50;99.90;;;;;;4485587;27;658735;-63
2020/12/27 08:04:10;;;;;;;46.23;15.33;;;-4.40;99.90;;;;;;4443321;27;658889;-62
2020/12/27 08:06:57;;;;;;;37.50;12.50;;;-4.30;99.90;;;;;;4462514;27;658599;-63
2020/12/27 08:09:44;;;;;;;40.73;13.50;;;-4.20;99.90;;;;;;4482009;27;658506;-62
2020/12/27 08:12:32;;;;;;;45.83;15.80;;;-4.00;99.90;;;;;;4485943;27;658826;-62
2020/12/27 08:15:19;;;;;;;46.77;17.43;;;-3.90;99.90;;;;;;4497905;27;658661;-60
2020/12/27 08:18:07;;;;;;;52.27;18.20;;;-3.80;99.90;;;;;;4492406;27;658742;-61
2020/12/27 08:20:54;;;;;;;59.87;20.67;;;-3.70;99.90;;;;;;4481054;27;659071;-61
2020/12/27 08:23:43;;;;;;;91.20;26.83;;;-3.50;99.90;;;;;;4489374;27;658407;-60
2020/12/27 08:26:30;;;;;;;61.10;19.33;;;-3.20;99.90;;;;;;4469815;27;660832;-60
2020/12/27 08:29:18;;;;;;;50.20;16.20;;;-2.50;99.90;;;;;;4482915;27;658543;-62
2020/12/27 08:32:06;;;;;;;52.93;18.10;;;-1.80;99.90;;;;;;4483511;27;658285;-61
2020/12/27 08:34:53;;;;;;;54.03;18.37;;;-1.30;99.90;;;;;;4481405;27;659191;-62
2020/12/27 08:37:40;;;;;;;68.10;20.27;;;-0.80;99.90;;;;;;4477455;27;658487;-62
2020/12/27 08:40:28;;;;;;;60.93;19.33;;;-0.50;99.90;;;;;;4475317;27;659181;-62
2020/12/27 08:43:20;;;;;;;61.83;19.03;;;-0.20;99.90;;;;;;4494218;27;658191;-62
2020/12/27 08:46:07;;;;;;;56.60;18.63;;;0.30;99.90;;;;;;4447578;27;659130;-63
2020/12/27 08:49:02;;;;;;;59.37;20.97;;;0.80;99.90;;;;;;4484101;27;658511;-62
2020/12/27 08:51:52;;;;;;;48.43;17.47;;;1.20;99.90;;;;;;4444469;27;657656;-62
2020/12/27 08:54:39;;;;;;;45.50;16.83;;;1.80;99.90;;;;;;4462130;27;658848;-63
2020/12/27 08:57:26;;;;;;;37.47;15.83;;;2.40;99.90;;;;;;4495535;27;658203;-62
2020/12/27 09:00:13;;;;;;;57.10;20.83;;;2.80;99.90;;;;;;4461458;27;657805;-62
2020/12/27 09:03:01;;;;;;;77.27;26.80;;;3.40;99.90;;;;;;4468786;27;657912;-63
2020/12/27 09:05:48;;;;;;;77.43;26.47;;;3.70;99.90;;;;;;4466650;27;657457;-63
2020/12/27 09:08:35;;;;;;;51.97;19.97;;;4.00;99.90;;;;;;4493958;27;659162;-63
2020/12/27 09:11:22;;;;;;;45.10;17.30;;;4.70;99.90;;;;;;4469327;27;658403;-63
2020/12/27 09:14:30;;;;;;;29.20;12.83;;;5.10;95.10;;;;;;4494237;27;658754;-63
2020/12/27 09:17:17;;;;;;;34.53;13.90;;;5.80;76.50;;;;;;4443806;27;657687;-63
2020/12/27 09:20:04;;;;;;;40.13;16.10;;;5.50;79.20;;;;;;4486244;27;659361;-63
2020/12/27 09:22:51;;;;;;;32.88;14.45;;;6.10;66.60;;;;;;4488783;27;657790;-63
2020/12/27 09:25:39;;;;;;;30.33;12.97;;;6.50;70.30;;;;;;4475599;27;657498;-63
2020/12/27 09:28:30;;;;;;;30.17;13.23;;;6.80;58.20;;;;;;4488450;27;658285;-63
2020/12/27 09:31:18;;;;;;;33.13;12.27;;;6.90;60.30;;;;;;4466815;27;657899;-63
2020/12/27 09:34:06;;;;;;;29.63;12.33;;;7.30;58.90;;;;;;4488754;27;657217;-63
2020/12/27 09:36:53;;;;;;;30.50;12.90;;;7.90;56.40;;;;;;4472155;27;657587;-63
2020/12/27 09:39:40;;;;;;;30.90;13.37;;;7.50;53.70;;;;;;4486732;27;658827;-62
2020/12/27 09:42:29;;;;;;;27.53;11.87;;;7.80;51.70;;;;;;4486991;27;659808;-63
2020/12/27 09:45:20;;;;;;;33.17;13.63;;;8.00;52.30;;;;;;4467435;27;657903;-63
2020/12/27 09:48:07;;;;;;;36.00;14.33;;;8.20;49.20;;;;;;4455734;27;657817;-64
2020/12/27 09:50:54;;;;;;;26.43;12.13;;;8.50;49.30;;;;;;4494425;27;658128;-63
2020/12/27 09:53:41;;;;;;;32.07;13.20;;;8.60;46.70;;;;;;4492582;27;657778;-63
2020/12/27 09:56:28;;;;;;;29.77;13.37;;;9.10;47.50;;;;;;4460302;27;659307;-63
2020/12/27 09:59:16;;;;;;;25.17;11.67;;;9.50;45.70;;;;;;4490277;27;658054;-63
2020/12/27 10:02:04;;;;;;;21.70;9.70;;;9.70;43.60;;;;;;4469586;27;658986;-63
2020/12/27 10:04:51;;;;;;;24.00;11.03;;;9.90;45.30;;;;;;4484373;28;656605;-62
2020/12/27 10:07:38;;;;;;;21.80;11.23;;;10.40;43.50;;;;;;4464062;28;657963;-63
2020/12/27 10:10:25;;;;;;;22.67;11.13;;;11.20;43.50;;;;;;4481971;28;659368;-63
2020/12/27 10:13:12;;;;;;;18.63;9.30;;;11.50;40.20;;;;;;4462979;28;658942;-64
2020/12/27 10:16:00;;;;;;;22.70;9.77;;;10.70;41.30;;;;;;4487375;28;657400;-62
2020/12/27 10:18:47;;;;;;;25.63;11.63;;;10.70;39.50;;;;;;4469134;28;658026;-68
2020/12/27 10:21:34;;;;;;;24.27;11.50;;;10.70;40.00;;;;;;4486998;28;659914;-69
2020/12/27 10:24:23;;;;;;;25.00;11.50;;;11.30;39.30;;;;;;4485013;28;659270;-69
2020/12/27 10:27:10;;;;;;;33.85;13.82;;;11.30;38.60;;;;;;4461535;28;659366;-70
2020/12/27 10:29:57;;;;;;;18.57;8.47;;;11.30;38.80;;;;;;4465219;28;658728;-69
2020/12/27 10:32:45;;;;;;;21.85;10.40;;;11.30;39.00;;;;;;4489864;28;658528;-70
2020/12/27 10:35:32;;;;;;;22.33;10.17;;;11.30;38.20;;;;;;4465513;28;658426;-68
2020/12/27 10:38:19;;;;;;;19.53;8.97;;;10.70;38.20;;;;;;4488739;28;659893;-70
2020/12/27 10:41:07;;;;;;;15.13;7.60;;;10.90;37.30;;;;;;4489699;28;656967;-66
2020/12/27 10:43:55;;;;;;;18.30;9.00;;;10.70;37.60;;;;;;4489761;28;658306;-70
2020/12/27 10:46:42;;;;;;;19.47;9.33;;;10.70;40.60;;;;;;4466722;28;657720;-67
2020/12/27 10:49:30;;;;;;;26.10;11.47;;;11.20;38.90;;;;;;4485868;28;658735;-71
2020/12/27 10:52:17;;;;;;;29.90;13.60;;;12.10;38.20;;;;;;4465244;28;658830;-69
2020/12/27 10:55:04;;;;;;;34.40;13.10;;;11.80;38.40;;;;;;4484152;28;659735;-71
2020/12/27 10:57:52;;;;;;;28.00;11.10;;;12.20;38.40;;;;;;4484550;27;659547;-67
2020/12/27 11:00:39;;;;;;;26.90;11.23;;;12.70;36.10;;;;;;4492016;27;659705;-71
2020/12/27 11:03:26;;;;;;;25.00;10.50;;;12.30;35.70;;;;;;4487822;27;658580;-71
2020/12/27 11:06:14;;;;;;;25.63;10.73;;;13.30;37.10;;;;;;4464989;27;658548;-70
2020/12/27 11:09:01;;;;;;;31.13;12.60;;;14.10;34.00;;;;;;4487571;27;659863;-71
2020/12/27 11:11:52;;;;;;;46.27;16.63;;;14.20;33.70;;;;;;4465909;27;659250;-71
2020/12/27 11:14:39;;;;;;;45.63;16.53;;;14.10;34.30;;;;;;4464042;27;659630;-70
2020/12/27 11:17:27;;;;;;;31.23;13.00;;;14.30;33.80;;;;;;4474090;27;659490;-68
2020/12/27 11:20:14;;;;;;;42.27;15.40;;;14.40;33.40;;;;;;4491942;27;659032;-71
2020/12/27 11:23:02;;;;;;;58.07;18.33;;;14.40;34.00;;;;;;4487379;27;658672;-70
2020/12/27 11:25:49;;;;;;;37.67;14.57;;;13.70;33.20;;;;;;4464383;27;660948;-70
2020/12/27 11:28:38;;;;;;;56.17;19.67;;;13.70;34.70;;;;;;4485749;27;658553;-67
2020/12/27 11:31:25;;;;;;;52.80;18.30;;;14.20;33.30;;;;;;4487407;27;658826;-69
2020/12/27 11:34:12;;;;;;;54.53;18.93;;;14.10;33.80;;;;;;4468205;27;658969;-69
2020/12/27 11:36:59;;;;;;;48.13;17.37;;;15.20;33.20;;;;;;4487743;27;660238;-70
2020/12/27 11:39:47;;;;;;;27.63;12.57;;;14.70;31.90;;;;;;4487113;27;658876;-70
2020/12/27 11:42:35;;;;;;;24.87;11.83;;;15.40;33.10;;;;;;4462305;27;659120;-70
2020/12/27 11:45:22;;;;;;;22.67;11.07;;;15.70;32.60;;;;;;4468399;27;658925;-68
2020/12/27 11:48:09;;;;;;;27.90;13.13;;;15.80;31.70;;;;;;4487547;27;660088;-70
2020/12/27 11:50:57;;;;;;;30.80;14.13;;;15.30;32.60;;;;;;4475844;27;658453;-67
2020/12/27 11:53:44;;;;;;;25.43;12.37;;;15.20;32.40;;;;;;4487283;27;660295;-70
2020/12/27 11:56:33;;;;;;;25.07;12.67;;;16.00;31.90;;;;;;4485516;27;658634;-67
2020/12/27 11:59:20;;;;;;;24.57;12.73;;;16.30;31.10;;;;;;4487165;27;660063;-70
2020/12/27 12:02:07;;;;;;;24.17;12.70;;;16.80;31.60;;;;;;4467707;27;658561;-65
2020/12/27 12:04:54;;;;;;;23.77;12.07;;;17.00;30.90;;;;;;4474793;27;659708;-69
2020/12/27 12:07:41;;;;;;;24.90;11.53;;;16.60;30.60;;;;;;4480773;27;659006;-70
2020/12/27 12:10:28;;;;;;;26.13;11.73;;;16.20;30.40;;;;;;4451320;27;658766;-70
2020/12/27 12:13:16;;;;;;;21.57;10.53;;;16.10;30.50;;;;;;4474133;27;659742;-69
2020/12/27 12:16:05;;;;;;;22.73;10.87;;;16.10;29.30;;;;;;4459043;27;658721;-69
2020/12/27 12:18:53;;;;;;;17.93;10.50;;;17.60;30.00;;;;;;4455322;27;658739;-66
2020/12/27 12:21:46;;;;;;;24.47;11.70;;;18.00;28.00;;;;;;4483928;27;659963;-69
2020/12/27 12:24:40;;;;;;;21.53;11.20;;;18.70;27.80;;;;;;4428529;27;660005;-69
2020/12/27 12:27:29;;;;;;;25.37;11.03;;;18.90;27.90;;;;;;4475148;27;658819;-69
2020/12/27 12:30:26;;;;;;;17.57;10.10;;;19.10;26.80;;;;;;4486511;27;659255;-69
2020/12/27 12:33:16;;;;;;;19.70;10.20;;;18.60;26.30;;;;;;4439326;27;659448;-68
2020/12/27 12:36:05;;;;;;;18.77;10.77;;;18.30;27.50;;;;;;4460800;27;658582;-68
2020/12/27 12:38:54;;;;;;;23.02;12.05;;;18.50;27.90;;;;;;4454762;27;658764;-66
2020/12/27 12:41:42;;;;;;;19.57;10.13;;;18.20;27.40;;;;;;4474045;27;659314;-69
2020/12/27 12:44:30;;;;;;;20.83;10.33;;;18.40;26.60;;;;;;4450772;27;660907;-68
2020/12/27 12:47:18;;;;;;;19.87;10.30;;;17.10;26.80;;;;;;4457911;27;658645;-66
2020/12/27 12:50:05;;;;;;;17.07;9.47;;;17.40;28.10;;;;;;4464671;27;659378;-68
2020/12/27 12:52:52;;;;;;;21.17;10.87;;;16.20;28.90;;;;;;4463445;27;657553;-67
2020/12/27 12:55:39;;;;;;;20.43;10.67;;;16.50;29.50;;;;;;4479896;27;660135;-69
2020/12/27 12:58:26;;;;;;;18.40;9.80;;;15.90;29.40;;;;;;4477863;27;660086;-69
2020/12/27 13:01:13;;;;;;;21.13;11.10;;;15.90;30.40;;;;;;4462307;27;659102;-69
2020/12/27 13:04:01;;;;;;;21.07;11.87;;;15.10;30.00;;;;;;4474804;27;660032;-68
2020/12/27 13:06:48;;;;;;;21.00;11.02;;;14.90;30.00;;;;;;4457002;27;658602;-69
2020/12/27 13:09:35;;;;;;;21.80;11.03;;;14.70;31.30;;;;;;4475042;27;659609;-69
2020/12/27 13:12:22;;;;;;;29.30;12.25;;;13.90;31.20;;;;;;4455861;27;660220;-67
2020/12/27 13:15:09;;;;;;;20.87;10.93;;;13.60;32.60;;;;;;4475038;27;660024;-69
2020/12/27 13:17:56;;;;;;;26.17;12.93;;;13.70;31.70;;;;;;4473807;27;658777;-69
2020/12/27 13:20:44;;;;;;;29.77;13.20;;;12.60;33.70;;;;;;4451778;27;658666;-69
2020/12/27 13:23:32;;;;;;;26.80;12.20;;;11.20;35.80;;;;;;4469154;28;659033;-69
2020/12/27 13:26:19;;;;;;;25.58;12.20;;;11.30;36.90;;;;;;4455874;27;658253;-68
2020/12/27 13:29:09;;;;;;;29.43;13.03;;;11.10;37.10;;;;;;4469997;27;658633;-68
2020/12/27 13:31:57;;;;;;;23.20;12.30;;;11.30;37.00;;;;;;4451582;27;659221;-68
2020/12/27 13:34:45;;;;;;;29.83;13.53;;;11.40;37.70;;;;;;4479847;27;658219;-69
2020/12/27 13:37:33;;;;;;;33.50;14.77;;;12.00;37.00;;;;;;4464403;27;659933;-66
2020/12/27 13:40:21;;;;;;;33.77;14.77;;;11.50;36.30;;;;;;4479092;27;659121;-69
2020/12/27 13:43:08;;;;;;;34.83;15.13;;;10.70;37.50;;;;;;4459235;27;659197;-68
2020/12/27 13:45:56;;;;;;;31.73;13.60;;;10.50;39.10;;;;;;4471551;27;659766;-68
2020/12/27 13:48:45;;;;;;;33.73;15.53;;;10.70;38.90;;;;;;4454295;27;658717;-68
2020/12/27 13:51:32;;;;;;;30.30;13.77;;;10.20;39.10;;;;;;4455802;27;658968;-64
2020/12/27 13:54:20;;;;;;;30.07;14.23;;;10.60;39.20;;;;;;4482094;28;659134;-65
2020/12/27 13:57:07;;;;;;;38.93;16.60;;;10.60;38.40;;;;;;4464635;27;661322;-65
2020/12/27 13:59:54;;;;;;;43.13;16.30;;;10.30;38.60;;;;;;4455082;28;659083;-68
2020/12/27 14:02:41;;;;;;;36.13;14.87;;;9.50;40.00;;;;;;4469205;28;659703;-68